Time;durP1;ratioP1;P1;durP2;ratioP2;P2;SDS_P1;SDS_P2;PMS_P1;PMS_P2;Temp;Humidity;BMP_temperature;BMP_pressure;BME280_temperature;BME280_humidity;BME280_pressure;Samples;Min_cycle;Max_cycle;Signal;HPM_P1;HPM_P2
2021/11/15 00:02:20;;;;;;;36.87;33.80;;;9.40;86.80;;;;;;5003790;28;20453;-75
2021/11/15 00:04:47;;;;;;;33.70;30.70;;;9.40;86.90;;;;;;5007007;28;20459;-76
2021/11/15 00:07:14;;;;;;;35.70;32.20;;;9.50;86.60;;;;;;5005218;28;20472;-77
2021/11/15 00:09:43;;;;;;;32.83;30.13;;;9.50;86.60;;;;;;5006119;28;20986;-76
2021/11/15 00:12:12;;;;;;;33.70;30.90;;;9.60;86.10;;;;;;5007664;28;20449;-75
2021/11/15 00:14:39;;;;;;;33.27;30.40;;;9.70;86.10;;;;;;5007024;28;20484;-77
2021/11/15 00:17:06;;;;;;;34.00;31.00;;;9.70;85.80;;;;;;5003867;28;20951;-77
2021/11/15 00:19:33;;;;;;;32.80;30.10;;;9.70;86.00;;;;;;5004352;28;20471;-73
2021/11/15 00:22:04;;;;;;;34.80;31.47;;;9.60;86.10;;;;;;5002718;28;20548;-73
2021/11/15 00:24:31;;;;;;;33.07;29.87;;;9.50;86.60;;;;;;5004365;28;20908;-73
2021/11/15 00:26:58;;;;;;;33.03;30.33;;;9.50;86.60;;;;;;5002660;28;20469;-73
2021/11/15 00:29:26;;;;;;;35.07;31.83;;;9.60;86.50;;;;;;5005491;28;20460;-72
2021/11/15 00:31:53;;;;;;;33.93;30.67;;;9.60;86.50;;;;;;5005328;28;21044;-73
2021/11/15 00:34:20;;;;;;;31.67;28.93;;;9.60;86.50;;;;;;5005236;28;20978;-72
2021/11/15 00:36:47;;;;;;;32.90;29.97;;;9.60;86.30;;;;;;5005253;28;20465;-74
2021/11/15 00:39:14;;;;;;;32.00;29.23;;;9.60;86.50;;;;;;5005955;28;20484;-72
2021/11/15 00:41:41;;;;;;;31.67;28.87;;;9.50;86.50;;;;;;5005535;28;21252;-72
2021/11/15 00:44:07;;;;;;;32.17;29.50;;;9.50;86.70;;;;;;5006824;28;20509;-72
2021/11/15 00:46:36;;;;;;;30.40;27.90;;;9.40;86.80;;;;;;5004814;28;20567;-72
2021/11/15 00:49:03;;;;;;;32.37;29.57;;;9.50;86.70;;;;;;5007167;28;20568;-72
2021/11/15 00:51:31;;;;;;;32.47;29.60;;;9.40;87.10;;;;;;5006915;28;20464;-72
2021/11/15 00:53:59;;;;;;;31.73;28.93;;;9.40;87.30;;;;;;5011157;28;20473;-73
2021/11/15 00:56:26;;;;;;;31.77;29.00;;;9.50;87.50;;;;;;5003812;28;20460;-72
2021/11/15 00:58:53;;;;;;;31.23;28.63;;;9.50;87.20;;;;;;5005073;28;20468;-73
2021/11/15 01:01:20;;;;;;;32.00;29.13;;;9.50;87.00;;;;;;5007399;28;20881;-72
2021/11/15 01:03:49;;;;;;;32.10;29.40;;;9.50;86.60;;;;;;5003494;28;20483;-72
2021/11/15 01:06:16;;;;;;;31.53;29.00;;;9.50;86.50;;;;;;5002755;28;20461;-72
2021/11/15 01:08:44;;;;;;;30.70;28.23;;;9.40;87.00;;;;;;5000580;28;20484;-73
2021/11/15 01:11:11;;;;;;;31.23;28.67;;;9.40;86.90;;;;;;5000660;28;20475;-72
2021/11/15 01:13:39;;;;;;;31.47;28.57;;;9.60;86.90;;;;;;4999716;28;20990;-73
2021/11/15 01:16:07;;;;;;;29.70;27.30;;;9.80;86.20;;;;;;4999517;28;20836;-72
2021/11/15 01:18:35;;;;;;;32.53;29.63;;;9.80;85.90;;;;;;5000980;28;20453;-72
2021/11/15 01:21:03;;;;;;;31.40;28.50;;;9.80;85.80;;;;;;5005581;28;20512;-73
2021/11/15 01:23:30;;;;;;;30.90;28.20;;;9.70;85.30;;;;;;4996146;28;20486;-72
2021/11/15 01:25:57;;;;;;;31.10;28.20;;;9.80;85.50;;;;;;5001741;28;20470;-72
2021/11/15 01:28:24;;;;;;;29.90;27.40;;;9.70;85.30;;;;;;4999462;28;20499;-72
2021/11/15 01:30:51;;;;;;;28.10;25.73;;;9.60;85.60;;;;;;5000864;28;20961;-72
2021/11/15 01:33:18;;;;;;;31.50;28.90;;;9.60;85.50;;;;;;5002072;28;20485;-72
2021/11/15 01:35:45;;;;;;;30.50;28.10;;;9.50;85.60;;;;;;5000260;28;20475;-73
2021/11/15 01:38:14;;;;;;;31.60;28.80;;;9.40;86.50;;;;;;4998893;28;20543;-73
2021/11/15 01:40:41;;;;;;;30.43;28.00;;;9.40;86.30;;;;;;4999151;28;20982;-72
2021/11/15 01:43:08;;;;;;;30.23;27.73;;;9.40;85.60;;;;;;5001746;28;20486;-74
2021/11/15 01:45:37;;;;;;;30.57;27.83;;;9.40;85.30;;;;;;5004621;28;20444;-74
2021/11/15 01:48:06;;;;;;;32.00;29.10;;;9.40;86.10;;;;;;5004669;28;20491;-77
2021/11/15 01:50:34;;;;;;;30.70;28.20;;;9.50;85.00;;;;;;5002474;28;20995;-75
2021/11/15 01:53:02;;;;;;;28.80;26.50;;;9.40;84.70;;;;;;5005328;28;20486;-75
2021/11/15 01:55:32;;;;;;;27.90;25.80;;;9.40;85.20;;;;;;5004783;28;20464;-78
2021/11/15 01:58:01;;;;;;;29.03;26.53;;;9.50;84.40;;;;;;5002598;28;20849;-77
2021/11/15 02:00:31;;;;;;;28.97;26.57;;;9.50;83.90;;;;;;5002497;28;20559;-74
2021/11/15 02:02:59;;;;;;;28.03;26.00;;;9.40;84.10;;;;;;5006114;28;20477;-75
2021/11/15 02:05:26;;;;;;;28.60;26.20;;;9.30;84.50;;;;;;5006766;28;22078;-74
2021/11/15 02:07:53;;;;;;;28.10;25.83;;;9.40;84.40;;;;;;5002322;28;20481;-75
2021/11/15 02:10:20;;;;;;;29.27;27.07;;;9.40;84.20;;;;;;5005947;28;20461;-75
2021/11/15 02:12:49;;;;;;;28.47;26.20;;;9.40;84.30;;;;;;5003459;28;20472;-74
2021/11/15 02:15:16;;;;;;;28.37;26.17;;;9.50;84.00;;;;;;5003816;28;20825;-74
2021/11/15 02:17:46;;;;;;;27.63;25.60;;;9.40;83.50;;;;;;5004080;28;20457;-74
2021/11/15 02:20:16;;;;;;;29.70;27.43;;;9.50;83.20;;;;;;5008761;28;20451;-75
2021/11/15 02:22:44;;;;;;;27.43;25.43;;;9.40;83.60;;;;;;5006676;28;20485;-77
2021/11/15 02:25:13;;;;;;;28.97;26.93;;;9.20;83.90;;;;;;5003388;28;20940;-74
2021/11/15 02:27:40;;;;;;;28.60;26.40;;;9.20;83.70;;;;;;4999382;28;20468;-75
2021/11/15 02:30:13;;;;;;;27.57;25.53;;;9.20;84.00;;;;;;5001909;28;20480;-74
2021/11/15 02:32:41;;;;;;;29.23;26.97;;;9.20;84.00;;;;;;5000740;28;20492;-76
2021/11/15 02:35:09;;;;;;;28.73;26.47;;;9.10;85.00;;;;;;5001409;28;20842;-74
2021/11/15 02:37:39;;;;;;;27.37;25.23;;;9.00;84.50;;;;;;5002275;28;20990;-76
2021/11/15 02:40:08;;;;;;;29.83;27.53;;;8.90;84.70;;;;;;5002913;28;20465;-75
2021/11/15 02:42:35;;;;;;;27.95;25.77;;;9.00;84.70;;;;;;5002187;28;20480;-75
2021/11/15 02:45:02;;;;;;;26.97;25.07;;;9.20;84.10;;;;;;5000242;28;20684;-75
2021/11/15 02:47:29;;;;;;;27.90;25.90;;;9.10;83.50;;;;;;5006819;28;20457;-75
2021/11/15 02:49:56;;;;;;;27.47;25.40;;;9.20;83.60;;;;;;5003985;28;20464;-75
2021/11/15 02:52:23;;;;;;;28.00;25.80;;;9.20;83.60;;;;;;5002080;28;20481;-74
2021/11/15 02:54:51;;;;;;;26.77;24.87;;;9.10;83.90;;;;;;5005654;28;20459;-76
2021/11/15 02:57:20;;;;;;;28.77;26.70;;;9.00;83.80;;;;;;5003137;28;20575;-75
2021/11/15 02:59:48;;;;;;;28.30;26.13;;;9.00;83.90;;;;;;5007704;28;20978;-79
2021/11/15 03:02:15;;;;;;;29.00;26.50;;;9.10;83.40;;;;;;5003606;28;20495;-78
2021/11/15 03:04:45;;;;;;;29.30;26.98;;;9.10;83.40;;;;;;5005520;28;20461;-76
2021/11/15 03:07:12;;;;;;;29.83;27.53;;;9.20;83.10;;;;;;5002202;28;20220;-75
2021/11/15 03:09:39;;;;;;;29.67;27.48;;;9.00;83.10;;;;;;5008020;28;20481;-74
2021/11/15 03:12:08;;;;;;;28.90;26.52;;;9.00;83.50;;;;;;5005318;28;20206;-74
2021/11/15 03:14:35;;;;;;;30.00;27.48;;;8.90;83.60;;;;;;5001775;28;20561;-74
2021/11/15 03:17:02;;;;;;;29.93;27.53;;;8.90;84.00;;;;;;5006671;28;20884;-75
2021/11/15 03:19:29;;;;;;;28.50;26.30;;;9.10;83.30;;;;;;5008446;28;20475;-74
2021/11/15 03:21:56;;;;;;;28.58;26.35;;;9.10;83.00;;;;;;5008311;28;20213;-74
2021/11/15 03:24:23;;;;;;;28.58;26.48;;;9.00;83.30;;;;;;5000072;28;20598;-75
2021/11/15 03:26:50;;;;;;;29.45;27.25;;;9.20;82.90;;;;;;5006688;28;20695;-78
2021/11/15 03:29:18;;;;;;;29.23;26.90;;;9.30;82.50;;;;;;5009584;28;20240;-74
2021/11/15 03:31:45;;;;;;;27.47;25.57;;;9.30;82.70;;;;;;5004356;28;20465;-72
2021/11/15 03:34:15;;;;;;;29.67;27.27;;;9.30;83.40;;;;;;5004443;28;20480;-72
2021/11/15 03:36:43;;;;;;;30.20;27.70;;;9.30;82.90;;;;;;5007235;28;22283;-72
2021/11/15 03:39:13;;;;;;;32.17;29.27;;;9.30;82.70;;;;;;5015212;28;20462;-74
2021/11/15 03:41:42;;;;;;;29.60;27.20;;;9.20;83.30;;;;;;5007723;28;21183;-75
2021/11/15 03:44:10;;;;;;;30.97;28.60;;;9.20;83.20;;;;;;5005584;28;20493;-75
2021/11/15 03:46:39;;;;;;;29.83;27.23;;;9.20;83.80;;;;;;5007007;28;20471;-73
2021/11/15 03:49:06;;;;;;;31.73;28.87;;;9.20;84.00;;;;;;5007658;28;20489;-74
2021/11/15 03:51:34;;;;;;;32.70;29.80;;;9.20;84.20;;;;;;5005843;28;20468;-75
2021/11/15 03:54:02;;;;;;;32.37;29.57;;;9.20;84.00;;;;;;5005723;28;20476;-74
2021/11/15 03:56:29;;;;;;;34.30;31.40;;;9.10;84.40;;;;;;5011976;28;20464;-74
2021/11/15 03:58:58;;;;;;;34.10;31.00;;;9.10;84.80;;;;;;5010197;28;20460;-74
2021/11/15 04:01:29;;;;;;;33.57;30.80;;;9.10;84.90;;;;;;5005972;28;20471;-74
2021/11/15 04:04:00;;;;;;;34.10;31.30;;;9.00;84.90;;;;;;5008477;28;20585;-75
2021/11/15 04:06:30;;;;;;;32.77;30.10;;;9.00;85.20;;;;;;5008110;28;20456;-75
2021/11/15 04:08:58;;;;;;;34.15;31.65;;;9.00;85.00;;;;;;5005852;28;20599;-73
2021/11/15 04:11:28;;;;;;;31.08;28.58;;;9.00;84.20;;;;;;5008781;28;20790;-72
2021/11/15 04:13:58;;;;;;;30.60;28.20;;;9.00;83.40;;;;;;5002140;28;20214;-72
2021/11/15 04:16:25;;;;;;;30.75;28.35;;;9.00;83.30;;;;;;5005294;28;20210;-72
2021/11/15 04:18:56;;;;;;;31.87;29.43;;;9.00;83.10;;;;;;5008234;28;20202;-73
2021/11/15 04:21:26;;;;;;;30.15;27.75;;;8.90;83.70;;;;;;5006140;28;20468;-72
2021/11/15 04:23:53;;;;;;;32.20;29.90;;;9.00;83.40;;;;;;5006673;28;20592;-72
2021/11/15 04:26:20;;;;;;;34.38;31.98;;;9.10;83.30;;;;;;5004387;28;20201;-71
2021/11/15 04:28:47;;;;;;;31.40;28.93;;;9.10;82.90;;;;;;5004241;28;20304;-72
2021/11/15 04:31:14;;;;;;;29.42;27.05;;;9.10;82.90;;;;;;5000343;28;21876;-72
2021/11/15 04:33:40;;;;;;;35.78;33.28;;;9.20;82.40;;;;;;4999235;28;20228;-73
2021/11/15 04:36:07;;;;;;;28.98;26.67;;;9.30;82.20;;;;;;5003158;28;20202;-73
2021/11/15 04:38:36;;;;;;;31.17;28.67;;;9.10;82.40;;;;;;5001153;28;20194;-72
2021/11/15 04:41:03;;;;;;;31.90;29.58;;;9.00;83.30;;;;;;5001937;28;20205;-72
2021/11/15 04:43:30;;;;;;;30.27;28.08;;;9.10;83.50;;;;;;5000500;28;21167;-73
2021/11/15 04:45:56;;;;;;;32.17;29.60;;;9.10;83.30;;;;;;5000359;28;20194;-72
2021/11/15 04:48:25;;;;;;;31.13;28.90;;;9.30;82.30;;;;;;5003141;28;20280;-74
2021/11/15 04:50:52;;;;;;;30.13;27.73;;;9.10;82.70;;;;;;5001366;28;20844;-75
2021/11/15 04:53:19;;;;;;;35.90;33.30;;;8.90;83.30;;;;;;5000608;28;20238;-74
2021/11/15 04:55:48;;;;;;;32.53;30.10;;;8.80;83.70;;;;;;5004257;28;20208;-76
2021/11/15 04:58:15;;;;;;;32.15;29.55;;;8.70;84.20;;;;;;5001202;28;20256;-76
2021/11/15 05:00:42;;;;;;;31.52;29.23;;;8.70;84.00;;;;;;5000069;28;20556;-74
2021/11/15 05:03:09;;;;;;;33.47;31.17;;;8.70;84.20;;;;;;5000411;28;20707;-74
2021/11/15 05:05:36;;;;;;;31.27;28.60;;;8.70;84.10;;;;;;4999725;28;20668;-74
2021/11/15 05:08:03;;;;;;;32.88;30.42;;;8.70;84.00;;;;;;4999045;28;20198;-74
2021/11/15 05:10:31;;;;;;;31.02;28.63;;;8.70;84.10;;;;;;5001858;28;20218;-76
2021/11/15 05:13:02;;;;;;;30.58;28.38;;;8.70;84.20;;;;;;5002837;28;20230;-74
2021/11/15 05:15:29;;;;;;;31.13;28.73;;;8.60;84.20;;;;;;4999481;28;20195;-77
2021/11/15 05:17:56;;;;;;;31.07;28.63;;;8.60;84.30;;;;;;4998272;28;20460;-74
2021/11/15 05:20:24;;;;;;;33.10;30.63;;;8.60;84.40;;;;;;5003628;28;20449;-74
2021/11/15 05:22:51;;;;;;;29.30;27.10;;;8.60;84.60;;;;;;5002014;28;20221;-74
2021/11/15 05:25:19;;;;;;;31.35;28.65;;;8.50;84.80;;;;;;5002207;28;20202;-72
2021/11/15 05:27:47;;;;;;;30.80;28.52;;;8.50;85.00;;;;;;4999662;28;20205;-72
2021/11/15 05:30:17;;;;;;;30.52;28.02;;;8.60;84.80;;;;;;5005431;28;20225;-72
2021/11/15 05:32:45;;;;;;;31.00;28.80;;;8.60;84.90;;;;;;5005106;28;20217;-71
2021/11/15 05:35:12;;;;;;;30.60;27.90;;;8.60;85.00;;;;;;5006985;28;20293;-72
2021/11/15 05:37:39;;;;;;;30.73;28.42;;;8.70;84.60;;;;;;5004390;28;20469;-71
2021/11/15 05:40:08;;;;;;;29.48;27.05;;;8.90;84.00;;;;;;5006167;28;20284;-71
2021/11/15 05:42:35;;;;;;;30.40;28.10;;;9.00;83.50;;;;;;4997974;28;20214;-73
2021/11/15 05:45:04;;;;;;;30.58;28.17;;;9.00;83.10;;;;;;5000682;28;20198;-72
2021/11/15 05:47:32;;;;;;;33.15;30.70;;;8.80;83.30;;;;;;5000521;28;20196;-70
2021/11/15 05:49:59;;;;;;;33.63;30.92;;;8.70;83.60;;;;;;5006061;28;20707;-75
2021/11/15 05:52:26;;;;;;;29.88;27.60;;;8.90;83.60;;;;;;5000618;28;20230;-72
2021/11/15 05:54:53;;;;;;;29.60;27.08;;;8.90;83.70;;;;;;5006109;28;20855;-72
2021/11/15 05:57:21;;;;;;;31.58;28.60;;;8.90;83.80;;;;;;5001035;28;20210;-72
2021/11/15 05:59:48;;;;;;;31.33;28.77;;;9.00;83.20;;;;;;5006219;28;20210;-73
2021/11/15 06:02:16;;;;;;;31.50;29.00;;;8.80;83.60;;;;;;5002659;28;20197;-73
2021/11/15 06:04:44;;;;;;;32.58;30.27;;;9.00;83.40;;;;;;4998750;28;20242;-73
2021/11/15 06:07:11;;;;;;;31.52;29.10;;;9.00;83.20;;;;;;5000121;28;20378;-73
2021/11/15 06:09:38;;;;;;;31.00;28.67;;;9.00;83.30;;;;;;4998482;28;20219;-74
2021/11/15 06:12:07;;;;;;;32.00;29.50;;;9.20;82.60;;;;;;5001577;28;20208;-73
2021/11/15 06:14:34;;;;;;;31.33;28.92;;;9.10;82.90;;;;;;5006862;28;20528;-73
2021/11/15 06:17:01;;;;;;;32.47;29.77;;;9.00;83.60;;;;;;5004453;28;20203;-73
2021/11/15 06:19:28;;;;;;;32.55;30.13;;;8.90;84.30;;;;;;5008228;28;20200;-74
2021/11/15 06:21:56;;;;;;;33.65;30.88;;;8.80;84.30;;;;;;5006668;28;20206;-73
2021/11/15 06:24:23;;;;;;;33.20;30.60;;;8.70;84.70;;;;;;5006096;28;20221;-74
2021/11/15 06:26:50;;;;;;;31.92;29.20;;;8.70;84.90;;;;;;5006506;28;20198;-73
2021/11/15 06:29:17;;;;;;;33.38;30.98;;;8.70;84.90;;;;;;5007475;28;21004;-71
2021/11/15 06:31:44;;;;;;;30.52;28.33;;;8.90;84.80;;;;;;5008634;28;20283;-72
2021/11/15 06:34:11;;;;;;;34.40;31.33;;;9.00;84.40;;;;;;5012027;28;20244;-75
2021/11/15 06:36:38;;;;;;;36.58;33.67;;;8.80;84.70;;;;;;5009623;28;20512;-74
2021/11/15 06:39:06;;;;;;;32.85;30.27;;;8.80;84.90;;;;;;5011915;28;20197;-75
2021/11/15 06:41:35;;;;;;;34.83;32.40;;;8.70;84.60;;;;;;5009987;28;20201;-74
2021/11/15 06:44:02;;;;;;;33.65;30.95;;;8.70;84.80;;;;;;5010625;28;20481;-75
2021/11/15 06:46:29;;;;;;;32.50;30.10;;;8.70;84.80;;;;;;5010668;28;20567;-75
2021/11/15 06:48:56;;;;;;;33.80;31.20;;;8.80;84.90;;;;;;5009635;28;20206;-76
2021/11/15 06:51:24;;;;;;;33.35;30.70;;;8.90;84.10;;;;;;5009983;28;20464;-75
2021/11/15 06:53:51;;;;;;;34.05;30.90;;;9.00;84.30;;;;;;5002363;28;20252;-74
2021/11/15 06:56:19;;;;;;;32.53;29.77;;;9.10;84.70;;;;;;5008329;28;20225;-74
2021/11/15 06:58:46;;;;;;;37.17;34.30;;;8.90;84.10;;;;;;5006105;28;20281;-73
2021/11/15 07:01:13;;;;;;;36.05;33.42;;;8.70;84.70;;;;;;5000907;28;20194;-74
2021/11/15 07:03:39;;;;;;;35.40;32.50;;;8.80;84.80;;;;;;5005777;28;20490;-74
2021/11/15 07:06:06;;;;;;;33.67;31.00;;;8.90;84.60;;;;;;5004062;28;20975;-74
2021/11/15 07:08:33;;;;;;;34.53;31.83;;;9.10;84.30;;;;;;5009333;28;20887;-74
2021/11/15 07:11:00;;;;;;;33.15;30.65;;;8.90;84.20;;;;;;5009684;28;20481;-77
2021/11/15 07:13:29;;;;;;;35.57;32.47;;;8.80;84.80;;;;;;5006084;28;20341;-74
2021/11/15 07:15:56;;;;;;;34.38;31.45;;;8.90;85.00;;;;;;5000630;28;20457;-73
2021/11/15 07:18:26;;;;;;;32.95;30.42;;;8.80;84.80;;;;;;5011562;28;20212;-73
2021/11/15 07:20:53;;;;;;;34.10;31.50;;;8.90;84.50;;;;;;5012918;28;20676;-72
2021/11/15 07:23:21;;;;;;;33.55;30.67;;;8.80;85.70;;;;;;5002476;28;20485;-73
2021/11/15 07:25:47;;;;;;;35.22;32.13;;;8.80;86.40;;;;;;5005781;28;20198;-73
2021/11/15 07:28:14;;;;;;;34.00;31.23;;;9.00;86.20;;;;;;5010984;28;20213;-74
2021/11/15 07:30:42;;;;;;;32.72;30.23;;;9.10;83.80;;;;;;5007909;28;20511;-71
2021/11/15 07:33:09;;;;;;;32.45;29.73;;;9.00;84.00;;;;;;5009741;28;20214;-71
2021/11/15 07:35:36;;;;;;;35.90;33.30;;;9.00;85.10;;;;;;5001225;28;20207;-71
2021/11/15 07:38:05;;;;;;;33.17;30.58;;;8.90;84.20;;;;;;5003589;28;20198;-71
2021/11/15 07:40:32;;;;;;;36.80;34.00;;;8.80;84.40;;;;;;5005425;28;20704;-71
2021/11/15 07:42:59;;;;;;;44.40;40.70;;;8.70;85.20;;;;;;5006895;28;20485;-71
2021/11/15 07:45:26;;;;;;;46.03;42.00;;;8.70;85.10;;;;;;5007579;28;20956;-71
2021/11/15 07:47:55;;;;;;;32.77;29.80;;;8.90;84.60;;;;;;5009435;28;20456;-71
2021/11/15 07:50:27;;;;;;;38.42;35.22;;;8.90;84.60;;;;;;5007435;28;20473;-73
2021/11/15 07:52:54;;;;;;;36.20;33.33;;;8.90;84.70;;;;;;5009252;28;20218;-71
2021/11/15 07:55:21;;;;;;;41.27;37.73;;;8.90;85.40;;;;;;5008562;28;20500;-73
2021/11/15 07:57:48;;;;;;;35.30;32.53;;;9.00;84.90;;;;;;5008144;28;20467;-72
2021/11/15 08:00:20;;;;;;;32.90;30.23;;;9.00;84.30;;;;;;5002970;28;20198;-73
2021/11/15 08:02:47;;;;;;;38.57;35.27;;;8.80;84.30;;;;;;5010465;28;20476;-73
2021/11/15 08:05:17;;;;;;;36.23;33.23;;;8.70;84.90;;;;;;5006436;28;20457;-72
2021/11/15 08:07:45;;;;;;;32.37;29.63;;;8.80;84.90;;;;;;5009427;28;20496;-72
2021/11/15 08:10:18;;;;;;;35.97;32.97;;;8.80;84.90;;;;;;5006390;28;20488;-73
2021/11/15 08:12:47;;;;;;;34.83;32.07;;;8.90;85.60;;;;;;5000099;28;20280;-71
2021/11/15 08:15:15;;;;;;;35.05;32.17;;;8.90;84.80;;;;;;5006049;28;20493;-73
2021/11/15 08:17:44;;;;;;;37.83;34.73;;;9.00;84.00;;;;;;5010612;28;20205;-73
2021/11/15 08:20:16;;;;;;;34.27;31.77;;;9.00;84.10;;;;;;5007513;28;20966;-75
2021/11/15 08:22:45;;;;;;;38.90;35.30;;;8.90;84.50;;;;;;5001632;28;20500;-71
2021/11/15 08:25:49;;;;;;;34.17;31.13;;;9.00;85.10;;;;;;5007938;28;20280;-72
2021/11/15 08:28:16;;;;;;;33.30;30.55;;;9.10;85.50;;;;;;5003295;28;20548;-74
2021/11/15 08:30:43;;;;;;;35.20;32.17;;;9.00;84.90;;;;;;5008501;28;20214;-73
2021/11/15 08:33:11;;;;;;;71.67;61.37;;;9.10;84.00;;;;;;5011409;28;20500;-74
2021/11/15 08:35:40;;;;;;;35.23;32.40;;;9.10;84.40;;;;;;5007888;28;20475;-73
2021/11/15 08:38:41;;;;;;;34.90;32.10;;;9.10;84.10;;;;;;5008886;28;20452;-73
2021/11/15 08:41:08;;;;;;;32.50;30.00;;;8.90;84.70;;;;;;4981245;28;20459;-72
2021/11/15 08:43:36;;;;;;;34.47;31.47;;;8.80;85.10;;;;;;5006663;28;20477;-74
2021/11/15 08:46:04;;;;;;;35.70;32.70;;;8.80;85.30;;;;;;4997132;28;20878;-72
2021/11/15 08:48:30;;;;;;;34.13;31.27;;;8.80;85.40;;;;;;5008468;28;20452;-72
2021/11/15 08:50:59;;;;;;;33.90;30.77;;;8.90;85.10;;;;;;5007068;28;20222;-72
2021/11/15 08:53:26;;;;;;;33.77;31.07;;;8.90;85.70;;;;;;5008546;28;20502;-72
2021/11/15 08:55:53;;;;;;;36.30;33.40;;;9.00;85.40;;;;;;5006311;28;20468;-72
2021/11/15 08:58:20;;;;;;;33.90;31.00;;;9.00;85.20;;;;;;5008051;28;20468;-72
2021/11/15 09:00:48;;;;;;;33.20;30.37;;;9.00;84.90;;;;;;5006579;28;20464;-72
2021/11/15 09:03:16;;;;;;;35.73;33.00;;;9.00;85.00;;;;;;5009175;28;20472;-74
2021/11/15 09:05:44;;;;;;;35.37;32.53;;;8.80;85.30;;;;;;5006791;28;20465;-72
2021/11/15 09:08:12;;;;;;;32.00;29.23;;;9.00;85.50;;;;;;5008723;28;20472;-72
2021/11/15 09:10:39;;;;;;;34.03;30.83;;;9.20;84.70;;;;;;5006854;28;20560;-71
2021/11/15 09:13:06;;;;;;;33.00;30.37;;;9.20;84.80;;;;;;5009134;28;21210;-70
2021/11/15 09:15:33;;;;;;;33.27;30.67;;;9.10;84.30;;;;;;5006806;28;20456;-71
2021/11/15 09:18:00;;;;;;;33.80;31.03;;;9.10;85.30;;;;;;4997738;28;20449;-71
2021/11/15 09:20:27;;;;;;;35.70;32.80;;;9.30;84.30;;;;;;5004568;28;20446;-72
2021/11/15 09:22:54;;;;;;;35.00;32.23;;;9.20;84.30;;;;;;4999275;28;20831;-73
2021/11/15 09:25:22;;;;;;;33.53;30.93;;;9.10;83.70;;;;;;5008992;28;20552;-73
2021/11/15 09:27:50;;;;;;;34.70;32.10;;;9.00;83.50;;;;;;5009582;28;20969;-73
2021/11/15 09:30:17;;;;;;;32.63;29.80;;;8.90;84.20;;;;;;4998363;28;20488;-78
2021/11/15 09:32:44;;;;;;;32.45;29.75;;;9.00;84.10;;;;;;5008678;28;20230;-74
2021/11/15 09:35:13;;;;;;;32.87;30.37;;;8.90;84.40;;;;;;5006486;28;21201;-74
2021/11/15 09:37:39;;;;;;;35.10;32.20;;;9.00;84.30;;;;;;5007642;28;20547;-72
2021/11/15 09:40:09;;;;;;;33.73;30.97;;;9.10;83.70;;;;;;5007508;28;20449;-73
2021/11/15 09:42:38;;;;;;;34.50;31.60;;;9.20;83.10;;;;;;5008940;28;20472;-76
2021/11/15 09:45:07;;;;;;;34.13;31.43;;;9.30;83.00;;;;;;4995759;28;20532;-73
2021/11/15 09:47:36;;;;;;;34.53;31.93;;;9.20;82.80;;;;;;5008607;28;20452;-73
2021/11/15 09:50:03;;;;;;;36.50;33.43;;;9.20;82.90;;;;;;5006787;28;20536;-72
2021/11/15 09:52:30;;;;;;;34.67;31.80;;;9.30;83.00;;;;;;5008486;28;20477;-72
2021/11/15 09:54:57;;;;;;;36.70;33.50;;;9.30;82.90;;;;;;5006249;28;20460;-72
2021/11/15 09:57:24;;;;;;;41.10;37.40;;;9.30;83.50;;;;;;5007896;28;20453;-73
2021/11/15 09:59:56;;;;;;;33.67;31.07;;;9.40;82.60;;;;;;5007332;28;20741;-72
2021/11/15 10:02:23;;;;;;;34.80;32.30;;;9.40;82.20;;;;;;5008851;28;20539;-72
2021/11/15 10:04:50;;;;;;;40.10;36.27;;;9.40;82.40;;;;;;5007794;28;20465;-72
2021/11/15 10:07:36;;;;;;;32.90;30.37;;;9.50;81.70;;;;;;5008710;28;20654;-72
2021/11/15 10:10:25;;;;;;;34.60;31.70;;;9.50;81.90;;;;;;5009778;28;20456;-70
2021/11/15 10:13:10;;;;;;;48.67;43.93;;;9.40;82.00;;;;;;5011889;28;20826;-71
2021/11/15 10:16:04;;;;;;;37.63;34.70;;;9.40;82.10;;;;;;5003482;28;20563;-70
2021/11/15 10:18:38;;;;;;;34.37;31.60;;;9.50;81.70;;;;;;5003629;28;20453;-72
2021/11/15 10:21:07;;;;;;;34.53;31.90;;;9.50;81.80;;;;;;5002814;28;20532;-73
2021/11/15 10:23:50;;;;;;;33.13;30.70;;;9.40;81.50;;;;;;5008888;28;20812;-74
2021/11/15 10:26:23;;;;;;;35.13;32.23;;;9.40;81.90;;;;;;5010145;28;20522;-75
2021/11/15 10:28:56;;;;;;;34.83;32.13;;;9.40;81.30;;;;;;5009846;28;20510;-72
2021/11/15 10:31:41;;;;;;;36.30;33.30;;;9.40;81.80;;;;;;5008112;28;20477;-73
2021/11/15 10:34:11;;;;;;;35.63;32.73;;;9.50;82.00;;;;;;5009542;28;20472;-73
2021/11/15 10:36:46;;;;;;;34.23;31.73;;;9.40;82.30;;;;;;5010775;28;20460;-75
2021/11/15 10:39:13;;;;;;;34.13;31.53;;;9.50;81.80;;;;;;5011612;28;20449;-73
2021/11/15 10:41:40;;;;;;;116.27;76.93;;;9.60;81.50;;;;;;5010898;28;20456;-74
2021/11/15 10:44:10;;;;;;;34.67;31.73;;;9.70;81.30;;;;;;5007668;28;20998;-74
2021/11/15 10:46:41;;;;;;;34.63;32.00;;;9.70;81.30;;;;;;5008945;28;20966;-71
2021/11/15 10:49:11;;;;;;;32.73;30.33;;;9.70;80.90;;;;;;5008931;28;20950;-72
2021/11/15 10:51:49;;;;;;;32.87;30.33;;;9.60;81.50;;;;;;5009789;28;20512;-73
2021/11/15 10:54:45;;;;;;;35.23;32.07;;;9.60;82.00;;;;;;5006442;28;20491;-73
2021/11/15 10:57:22;;;;;;;35.20;32.40;;;9.70;81.70;;;;;;5009098;28;20486;-72
2021/11/15 11:00:36;;;;;;;38.40;35.13;;;9.70;80.90;;;;;;5007584;28;20551;-71
2021/11/15 11:03:08;;;;;;;35.27;32.43;;;9.60;81.50;;;;;;5010989;28;20480;-72
2021/11/15 11:05:38;;;;;;;33.17;30.50;;;9.80;81.40;;;;;;5007991;28;20595;-71
2021/11/15 11:08:21;;;;;;;34.83;31.90;;;9.90;80.90;;;;;;5009063;28;20563;-71
2021/11/15 11:11:08;;;;;;;37.00;34.10;;;9.80;82.00;;;;;;5007189;28;20589;-72
2021/11/15 11:13:47;;;;;;;33.73;31.13;;;9.90;81.70;;;;;;5009254;28;20480;-72
2021/11/15 11:16:14;;;;;;;37.27;34.23;;;9.80;81.90;;;;;;5004736;28;20457;-71
2021/11/15 11:18:45;;;;;;;38.27;34.83;;;9.80;81.50;;;;;;5009307;28;20468;-72
2021/11/15 11:26:56;;;;;;;38.03;34.60;;;9.50;82.60;;;;;;5008908;28;20997;-73
2021/11/15 11:29:31;;;;;;;35.60;32.90;;;9.50;84.30;;;;;;5004409;28;20515;-72
2021/11/15 11:32:00;;;;;;;37.27;34.07;;;9.70;82.90;;;;;;5009368;28;20587;-73
2021/11/15 11:34:29;;;;;;;35.27;32.27;;;9.80;81.90;;;;;;5009329;28;20477;-74
2021/11/15 11:36:56;;;;;;;36.73;33.73;;;9.90;81.70;;;;;;5008766;28;20458;-72
2021/11/15 11:39:24;;;;;;;35.40;32.40;;;10.00;80.90;;;;;;5010060;28;20456;-72
2021/11/15 11:41:59;;;;;;;35.77;32.83;;;9.80;81.20;;;;;;5008528;28;21392;-73
2021/11/15 11:44:27;;;;;;;37.50;34.30;;;9.90;81.40;;;;;;5005226;28;20476;-73
2021/11/15 11:46:55;;;;;;;36.40;33.40;;;9.80;82.00;;;;;;5008609;28;20464;-73
2021/11/15 11:49:25;;;;;;;36.23;33.33;;;9.80;81.80;;;;;;5007749;28;20453;-74
2021/11/15 11:51:57;;;;;;;38.97;35.80;;;9.90;81.30;;;;;;5006386;28;20516;-74
2021/11/15 11:54:28;;;;;;;37.00;33.77;;;9.90;80.60;;;;;;5010552;28;20481;-73
2021/11/15 11:57:10;;;;;;;36.70;33.50;;;9.90;80.90;;;;;;5008384;28;20453;-76
2021/11/15 11:59:40;;;;;;;36.30;33.30;;;9.90;80.70;;;;;;5008197;28;20535;-73
2021/11/15 12:02:09;;;;;;;38.07;34.90;;;9.90;81.70;;;;;;5008520;28;20457;-73
2021/11/15 12:04:48;;;;;;;36.30;33.30;;;9.60;82.40;;;;;;5009124;28;20465;-75
2021/11/15 12:07:31;;;;;;;37.10;34.10;;;9.70;83.20;;;;;;5008577;28;20583;-73
2021/11/15 12:10:00;;;;;;;37.87;34.73;;;9.60;82.90;;;;;;5008058;28;20461;-73
2021/11/15 12:12:27;;;;;;;38.20;34.90;;;9.60;82.70;;;;;;5009986;28;20490;-76
2021/11/15 12:14:54;;;;;;;37.80;34.27;;;9.60;82.50;;;;;;5006200;28;20479;-76
2021/11/15 12:17:22;;;;;;;37.33;33.77;;;9.70;82.30;;;;;;5009095;28;20464;-77
2021/11/15 12:20:05;;;;;;;38.07;34.97;;;9.80;82.40;;;;;;5008301;28;20547;-76
2021/11/15 12:22:57;;;;;;;37.13;33.90;;;9.90;81.70;;;;;;5009214;28;20599;-74
2021/11/15 12:25:26;;;;;;;38.03;34.67;;;9.80;81.80;;;;;;5007397;28;20986;-76
2021/11/15 12:27:56;;;;;;;36.67;33.67;;;9.80;81.60;;;;;;5006746;28;20468;-74
2021/11/15 12:30:26;;;;;;;37.27;34.00;;;9.80;81.60;;;;;;5007595;28;20532;-75
2021/11/15 12:33:24;;;;;;;35.93;32.97;;;9.80;81.40;;;;;;5008856;28;20492;-75
2021/11/15 12:36:05;;;;;;;35.67;32.87;;;9.80;81.20;;;;;;4983723;28;20457;-75
2021/11/15 12:38:38;;;;;;;38.83;35.57;;;9.70;82.20;;;;;;5006654;28;20464;-73
2021/11/15 12:41:36;;;;;;;40.33;36.93;;;9.80;81.80;;;;;;5005585;28;20539;-73
2021/11/15 12:44:27;;;;;;;38.87;35.43;;;9.80;83.80;;;;;;5003651;28;20480;-74
2021/11/15 12:46:59;;;;;;;38.80;35.50;;;9.80;85.10;;;;;;5005166;28;20489;-74
2021/11/15 12:49:32;;;;;;;39.03;36.03;;;9.80;84.50;;;;;;5007610;28;20540;-73
2021/11/15 12:52:21;;;;;;;40.28;36.85;;;9.80;83.40;;;;;;5005633;28;20573;-74
2021/11/15 12:54:52;;;;;;;36.73;33.83;;;9.90;82.70;;;;;;5005539;28;20193;-75